You are not logged in, Click here to log in
暹粒-吳哥國際機場REP / VDSR 柬埔寨暹粒市西北,距市中心7公里
ICAO: VDSR Country: 柬埔寨暹粒市西北,距市中心7公里
Latitude: 13.4107 Longitude: 103.813
Total Arrivals: 5 Total Departures: 3
Latest Arrival: VN0835 (VVNB-VDSR)Stone. Chang Latest Departure: VN0814 (VDSR-VVTS)Stone. Chang
Scenery:
METAR : VDSR 080330Z 35004KT 320V030 9000 SCT015 BKN040 21/11 Q1019

暹粒-吳哥國際機場REP